Terminal Aerodrome Forecast
Issued by NWS Huntsville, AL

Home | Current Version | Previous Version | Text Only | Print | Product List | Glossary On
Versions: 1 2 3 4 5 6 7 8 9 10 11 12 13 14
000
FTUS44 KHUN 261723
TAFMSL
TAF
KMSL 261723Z 2618/2718 VRB04KT P6SM SCT040
     FM270100 VRB03KT P6SM SCT070 BKN250
      TEMPO 2714/2718 VRB15KT 3SM TSRA BKN030CB=

USA.gov is the U.S. government's official web portal to all federal, state and local government web resources and services.